Time;durP1;ratioP1;P1;durP2;ratioP2;P2;SDS_P1;SDS_P2;PMS_P1;PMS_P2;Temp;Humidity;BMP_temperature;BMP_pressure;BME280_temperature;BME280_humidity;BME280_pressure;Samples;Min_cycle;Max_cycle;Signal;HPM_P1;HPM_P2
2022/05/17 00:01:06;;;;;;;2.95;1.40;;;;;;;10.21;81.57;98311.44;5023116;28;20029;-60
2022/05/17 00:03:32;;;;;;;2.85;1.50;;;;;;;10.23;81.98;98309.59;5004926;28;20053;-60
2022/05/17 00:05:58;;;;;;;2.55;1.60;;;;;;;10.17;82.58;98308.09;4994772;28;20113;-60
2022/05/17 00:08:24;;;;;;;1.55;1.30;;;;;;;10.15;82.61;98297.84;4993347;28;20049;-60
2022/05/17 00:10:49;;;;;;;1.60;1.38;;;;;;;10.14;82.32;98301.31;5011118;28;20029;-60
2022/05/17 00:13:15;;;;;;;2.25;1.40;;;;;;;10.21;81.89;98295.91;5027006;28;20037;-60
2022/05/17 00:15:46;;;;;;;2.45;1.60;;;;;;;9.89;81.95;98238.59;5012789;28;20030;-60
2022/05/17 00:18:14;;;;;;;1.80;1.30;;;;;;;10.10;82.83;98273.88;5011451;28;20038;-62
2022/05/17 00:20:41;;;;;;;1.33;1.23;;;;;;;10.16;81.58;98278.81;5016475;28;20038;-61
2022/05/17 00:23:08;;;;;;;2.45;1.38;;;;;;;10.09;82.66;98287.75;5000126;28;20034;-61
2022/05/17 00:25:34;;;;;;;2.35;1.60;;;;;;;10.12;82.52;98281.63;4999889;28;20380;-61
2022/05/17 00:28:00;;;;;;;1.10;1.10;;;;;;;10.05;82.44;98283.59;5002169;28;20034;-59
2022/05/17 00:30:26;;;;;;;1.75;1.20;;;;;;;10.11;82.41;98274.75;4993152;28;20445;-60
2022/05/17 00:32:51;;;;;;;1.23;1.10;;;;;;;10.17;81.83;98280.47;5021834;28;20030;-60
2022/05/17 00:35:17;;;;;;;1.73;1.40;;;;;;;10.12;83.85;98279.84;5005419;28;20125;-61
2022/05/17 00:37:43;;;;;;;1.33;1.20;;;;;;;10.10;83.54;98275.66;5020552;28;20120;-61
2022/05/17 00:40:10;;;;;;;1.33;1.23;;;;;;;10.00;83.95;98272.59;5032247;28;20030;-60
2022/05/17 00:42:35;;;;;;;2.03;1.20;;;;;;;10.08;84.01;98267.97;5032457;28;20035;-60
2022/05/17 00:45:02;;;;;;;2.35;1.42;;;;;;;10.10;84.40;98267.88;4995425;28;20384;-60
2022/05/17 00:47:47;;;;;;;1.33;1.20;;;;;;;9.95;84.22;98266.81;4997628;28;20034;-60
2022/05/17 00:50:34;;;;;;;1.48;1.20;;;;;;;9.96;84.23;98273.63;5016573;28;20522;-59
2022/05/17 00:53:12;;;;;;;1.70;1.20;;;;;;;9.68;84.86;98236.84;5021735;28;20029;-59
2022/05/17 00:55:56;;;;;;;1.30;1.13;;;;;;;9.51;84.95;98210.88;5001675;28;20088;-59
2022/05/17 00:58:28;;;;;;;1.40;1.30;;;;;;;9.55;84.71;98207.25;4997496;28;20036;-59
2022/05/17 01:01:06;;;;;;;1.30;1.20;;;;;;;9.63;85.04;98205.19;4997847;28;20029;-59
2022/05/17 01:03:37;;;;;;;2.92;1.30;;;;;;;9.65;85.01;98203.38;5012569;28;20088;-62
2022/05/17 01:06:03;;;;;;;1.10;1.10;;;;;;;10.04;84.92;98261.22;4993906;28;20065;-61
2022/05/17 01:08:29;;;;;;;1.45;1.20;;;;;;;10.09;84.60;98261.03;5020217;28;20531;-61
2022/05/17 01:10:55;;;;;;;2.17;1.58;;;;;;;9.90;85.02;98229.94;5031707;28;20168;-60
2022/05/17 01:16:09;;;;;;;1.13;1.13;;;;;;;10.01;85.39;98259.59;5008161;28;20473;-60
2022/05/17 01:18:39;;;;;;;2.88;1.40;;;;;;;9.94;85.12;98249.59;5012378;28;20614;-60
2022/05/17 01:21:06;;;;;;;2.13;1.27;;;;;;;9.95;85.39;98259.03;4993467;28;20089;-60
2022/05/17 01:23:32;;;;;;;2.00;1.48;;;;;;;9.79;85.88;98259.69;4992255;28;20333;-60
2022/05/17 01:25:58;;;;;;;3.33;1.35;;;;;;;9.83;86.43;98250.03;4996084;28;20476;-61
2022/05/17 01:28:30;;;;;;;2.58;1.63;;;;;;;9.88;87.06;98253.28;4998093;28;20031;-60
2022/05/17 01:31:03;;;;;;;2.78;1.70;;;;;;;9.91;86.99;98244.56;4997325;28;20048;-59
2022/05/17 01:33:31;;;;;;;1.45;1.35;;;;;;;9.94;85.67;98245.25;5030368;28;20480;-60
2022/05/17 01:35:56;;;;;;;3.03;1.60;;;;;;;9.97;85.28;98249.47;5009891;28;20439;-60
2022/05/17 01:38:22;;;;;;;1.80;1.58;;;;;;;10.03;85.94;98251.78;5012195;28;20041;-60
2022/05/17 01:40:47;;;;;;;1.17;1.17;;;;;;;10.00;84.63;98252.78;5009145;28;20022;-61
2022/05/17 01:43:13;;;;;;;1.92;1.30;;;;;;;10.04;86.16;98248.28;5012186;28;20033;-60
2022/05/17 01:45:38;;;;;;;1.50;1.40;;;;;;;10.08;85.82;98241.25;5002491;28;20359;-60
2022/05/17 01:48:05;;;;;;;1.75;1.65;;;;;;;10.05;86.59;98238.78;4995381;28;20033;-60
2022/05/17 01:50:30;;;;;;;1.60;1.50;;;;;;;10.09;85.78;98245.50;5005700;28;20078;-60
2022/05/17 01:52:56;;;;;;;1.50;1.40;;;;;;;10.07;85.67;98240.41;5002733;28;20042;-60
2022/05/17 01:55:21;;;;;;;2.05;1.55;;;;;;;10.15;84.66;98246.09;5007093;28;20380;-60
2022/05/17 01:57:47;;;;;;;1.60;1.50;;;;;;;10.15;84.73;98246.09;4992090;28;20062;-60
2022/05/17 02:00:19;;;;;;;1.70;1.50;;;;;;;10.05;84.67;98233.59;5006325;28;20045;-60
2022/05/17 02:02:44;;;;;;;;;;;;;;;10.10;85.58;98240.25;5002866;28;20480;-60
2022/05/17 02:05:10;;;;;;;1.80;1.70;;;;;;;9.84;86.71;98231.03;5006434;28;19913;-59
2022/05/17 02:07:36;;;;;;;2.33;1.73;;;;;;;10.07;85.74;98234.41;5009069;28;20142;-59
2022/05/17 02:10:02;;;;;;;1.70;1.60;;;;;;;10.08;86.44;98229.16;5006377;28;20466;-59
2022/05/17 02:12:29;;;;;;;2.17;1.85;;;;;;;9.79;86.81;98214.88;5015427;28;20034;-60
2022/05/17 02:14:54;;;;;;;1.60;1.50;;;;;;;9.93;86.22;98235.84;5014998;28;20468;-59
2022/05/17 02:17:20;;;;;;;1.60;1.50;;;;;;;9.94;87.22;98228.91;5001747;28;20057;-60
2022/05/17 02:19:45;;;;;;;1.95;1.70;;;;;;;9.88;87.00;98232.59;5002463;28;20034;-59
2022/05/17 02:22:11;;;;;;;1.77;1.50;;;;;;;10.00;87.44;98232.09;5016292;28;20033;-59
2022/05/17 02:24:36;;;;;;;2.45;1.70;;;;;;;9.96;86.15;98232.25;5017069;28;20030;-59
2022/05/17 02:27:02;;;;;;;1.65;1.55;;;;;;;9.98;85.96;98233.88;5008660;28;20038;-59
2022/05/17 02:29:31;;;;;;;1.63;1.52;;;;;;;10.05;84.98;98223.25;4995190;28;20395;-59
2022/05/17 02:31:58;;;;;;;1.50;1.40;;;;;;;10.00;86.88;98224.31;5004179;28;20052;-60
2022/05/17 02:34:24;;;;;;;1.70;1.60;;;;;;;10.02;85.77;98219.91;5009274;28;20046;-59
2022/05/17 02:36:50;;;;;;;1.60;1.50;;;;;;;10.04;85.11;98222.44;4995373;28;20077;-60
2022/05/17 02:39:16;;;;;;;2.13;1.58;;;;;;;10.01;85.64;98223.41;4994739;28;20392;-60
2022/05/17 02:41:42;;;;;;;1.90;1.77;;;;;;;10.00;85.23;98219.16;4995091;28;20030;-61
2022/05/17 02:44:07;;;;;;;2.38;1.50;;;;;;;9.95;85.93;98215.91;5015647;28;20510;-59
2022/05/17 02:46:34;;;;;;;2.65;1.60;;;;;;;9.97;86.08;98221.84;5021467;28;20033;-59
2022/05/17 02:49:04;;;;;;;1.70;1.60;;;;;;;9.84;85.06;98231.03;5013571;28;20483;-59
2022/05/17 02:51:30;;;;;;;2.75;1.92;;;;;;;9.78;88.33;98221.78;4995168;28;20031;-59
2022/05/17 02:53:55;;;;;;;1.63;1.52;;;;;;;10.00;85.80;98221.75;5003904;28;20054;-59
2022/05/17 02:56:21;;;;;;;1.67;1.50;;;;;;;9.88;86.81;98224.00;5002142;28;20023;-59
2022/05/17 02:58:46;;;;;;;1.50;1.40;;;;;;;9.94;85.23;98215.97;5001908;28;20044;-59
2022/05/17 03:01:12;;;;;;;3.35;1.92;;;;;;;10.07;85.19;98224.88;5013713;28;20026;-59
2022/05/17 03:03:40;;;;;;;1.65;1.55;;;;;;;10.04;85.36;98224.19;5012890;28;20030;-60
2022/05/17 03:06:06;;;;;;;2.17;1.70;;;;;;;10.10;86.80;98231.69;5005650;28;20029;-60
2022/05/17 03:08:32;;;;;;;1.95;1.80;;;;;;;10.11;86.32;98225.59;5014072;28;20117;-60
2022/05/17 03:10:57;;;;;;;2.72;2.40;;;;;;;9.96;87.06;98222.78;5029136;28;20116;-59
2022/05/17 03:13:23;;;;;;;1.55;1.45;;;;;;;10.05;86.68;98231.88;5009850;28;20381;-59
2022/05/17 03:15:52;;;;;;;2.90;1.52;;;;;;;9.92;86.49;98225.53;4994444;28;20392;-59
2022/05/17 03:18:18;;;;;;;2.65;1.60;;;;;;;10.01;87.27;98225.16;5013273;28;20034;-59
2022/05/17 03:20:44;;;;;;;1.90;1.67;;;;;;;10.08;87.26;98231.75;5009379;28;20030;-59
2022/05/17 03:23:10;;;;;;;3.08;1.55;;;;;;;10.01;86.90;98236.31;5004538;28;20476;-59
2022/05/17 03:25:36;;;;;;;2.28;1.50;;;;;;;10.13;87.06;98219.47;5013695;28;20415;-59
2022/05/17 03:28:02;;;;;;;2.47;1.63;;;;;;;10.10;87.33;98223.91;5005143;28;20062;-59
2022/05/17 03:30:29;;;;;;;1.77;1.40;;;;;;;10.15;86.89;98222.81;5033463;28;20155;-59
2022/05/17 03:32:55;;;;;;;1.77;1.58;;;;;;;10.12;86.39;98227.28;5012546;28;20073;-59
2022/05/17 03:35:21;;;;;;;2.33;1.60;;;;;;;10.22;85.92;98223.38;5008750;28;20050;-60
2022/05/17 03:37:46;;;;;;;2.25;1.65;;;;;;;10.12;86.50;98215.19;5020403;28;20025;-59
2022/05/17 03:40:12;;;;;;;2.00;1.80;;;;;;;10.19;85.95;98229.53;5028512;28;20223;-60
2022/05/17 03:42:38;;;;;;;2.30;1.75;;;;;;;10.18;86.27;98229.59;4993985;28;20480;-60
2022/05/17 03:45:05;;;;;;;2.63;2.08;;;;;;;10.17;85.80;98238.25;5010815;28;20049;-60
2022/05/17 03:47:31;;;;;;;1.92;1.67;;;;;;;10.19;86.02;98232.13;5025586;28;20026;-60
2022/05/17 03:49:57;;;;;;;2.40;1.60;;;;;;;10.28;85.90;98230.03;5016553;28;20037;-60
2022/05/17 03:52:26;;;;;;;2.08;1.60;;;;;;;10.27;85.43;98236.13;4997094;28;20571;-60
2022/05/17 03:55:00;;;;;;;1.70;1.60;;;;;;;9.67;87.09;98188.63;5012989;28;20460;-60
2022/05/17 03:57:27;;;;;;;1.88;1.55;;;;;;;10.05;86.32;98238.78;4993693;28;20030;-60
2022/05/17 03:59:54;;;;;;;2.30;2.10;;;;;;;9.93;86.42;98234.97;4993331;28;20026;-61
2022/05/17 04:02:20;;;;;;;1.80;1.70;;;;;;;9.92;87.25;98220.34;5006177;28;20026;-59
2022/05/17 04:04:46;;;;;;;2.33;1.80;;;;;;;9.97;87.37;98232.19;5006017;28;20048;-59
2022/05/17 04:07:12;;;;;;;2.75;1.70;;;;;;;10.03;87.86;98231.09;4992970;28;20388;-60
2022/05/17 04:09:37;;;;;;;2.22;1.88;;;;;;;9.99;87.47;98235.56;4993567;28;20022;-59
2022/05/17 04:12:04;;;;;;;2.47;1.90;;;;;;;10.11;86.33;98230.78;5027258;28;20032;-60
2022/05/17 04:14:30;;;;;;;1.85;1.73;;;;;;;10.08;86.24;98223.16;5020122;28;20105;-60
2022/05/17 04:16:55;;;;;;;4.20;1.80;;;;;;;10.01;87.10;98223.41;5020983;28;20029;-60
2022/05/17 04:19:21;;;;;;;1.92;1.80;;;;;;;9.94;86.15;98216.81;5011175;28;20180;-61
2022/05/17 04:21:47;;;;;;;1.60;1.50;;;;;;;10.12;86.71;98229.88;4992883;28;20037;-60
2022/05/17 04:24:14;;;;;;;3.15;1.90;;;;;;;9.99;86.82;98225.22;5029829;28;20025;-60
2022/05/17 04:26:41;;;;;;;1.70;1.50;;;;;;;10.03;86.47;98228.50;5004653;28;20037;-60
2022/05/17 04:29:08;;;;;;;1.77;1.60;;;;;;;9.90;86.71;98228.19;5009923;28;20476;-60
2022/05/17 04:31:34;;;;;;;1.60;1.50;;;;;;;9.92;86.15;98228.13;5032320;28;20030;-59
2022/05/17 04:34:00;;;;;;;1.70;1.60;;;;;;;10.04;86.57;98225.03;5030482;28;20394;-60
2022/05/17 04:36:26;;;;;;;1.92;1.70;;;;;;;9.95;86.54;98213.31;5010838;28;20038;-60
2022/05/17 04:38:52;;;;;;;2.80;1.77;;;;;;;10.15;86.40;98234.91;5028060;28;20038;-60
2022/05/17 04:41:18;;;;;;;2.78;2.03;;;;;;;10.09;86.47;98225.66;5031939;28;20095;-60
2022/05/17 04:43:44;;;;;;;1.70;1.60;;;;;;;10.08;86.50;98234.31;5031715;28;20053;-60
2022/05/17 04:46:09;;;;;;;1.67;1.50;;;;;;;10.14;87.16;98226.28;5021691;28;20042;-60
2022/05/17 04:48:36;;;;;;;2.25;1.88;;;;;;;10.15;86.00;98234.91;4994364;28;20031;-60
2022/05/17 04:51:20;;;;;;;2.13;1.75;;;;;;;10.14;86.15;98236.63;5028933;28;20022;-62
2022/05/17 04:53:45;;;;;;;5.18;2.45;;;;;;;10.08;86.24;98230.91;5017496;28;20033;-61
2022/05/17 04:56:11;;;;;;;3.25;1.90;;;;;;;10.21;85.83;98246.75;5021680;28;20490;-60
2022/05/17 04:58:38;;;;;;;7.32;2.08;;;;;;;10.02;86.75;98227.66;5027120;28;20094;-60
2022/05/17 05:01:04;;;;;;;3.60;1.98;;;;;;;10.06;86.43;98209.44;5031576;28;20377;-61
2022/05/17 05:03:30;;;;;;;4.00;1.52;;;;;;;10.18;85.67;98229.59;5047110;28;20033;-60
2022/05/17 05:05:56;;;;;;;1.95;1.67;;;;;;;10.17;85.44;98228.75;5016491;28;20046;-61
2022/05/17 05:08:22;;;;;;;3.70;1.83;;;;;;;10.25;86.24;98225.00;5023009;28;20101;-59
2022/05/17 05:10:48;;;;;;;2.60;1.60;;;;;;;10.19;85.79;98232.13;5031725;28;20525;-60
2022/05/17 05:13:19;;;;;;;2.47;1.55;;;;;;;9.72;86.37;98188.47;5029895;28;20030;-60
2022/05/17 05:15:46;;;;;;;2.38;1.70;;;;;;;10.15;86.30;98234.91;5011023;28;20033;-60
2022/05/17 05:18:11;;;;;;;5.22;2.92;;;;;;;10.11;86.39;98234.19;4994063;28;20027;-61
2022/05/17 05:20:39;;;;;;;2.40;1.58;;;;;;;10.26;86.66;98240.47;5017335;28;20032;-59
2022/05/17 05:23:05;;;;;;;1.70;1.45;;;;;;;10.29;86.94;98247.22;5013104;28;20073;-60
2022/05/17 05:25:31;;;;;;;2.97;1.75;;;;;;;10.29;86.90;98244.63;4991043;28;20026;-61
2022/05/17 05:27:58;;;;;;;1.63;1.33;;;;;;;10.35;86.70;98239.25;4991041;28;20026;-60
2022/05/17 05:30:23;;;;;;;3.33;1.60;;;;;;;10.28;86.83;98243.81;4991416;28;20384;-60
2022/05/17 05:32:49;;;;;;;2.33;1.42;;;;;;;10.33;87.41;98244.47;4991511;28;20038;-61
2022/05/17 05:35:17;;;;;;;1.80;1.40;;;;;;;10.13;86.83;98196.19;5004025;28;20343;-61
2022/05/17 05:37:43;;;;;;;2.20;1.70;;;;;;;10.38;86.80;98249.47;5011539;28;20068;-60
2022/05/17 05:40:11;;;;;;;1.85;1.75;;;;;;;10.29;86.48;98248.09;5011809;28;20030;-60
2022/05/17 05:42:38;;;;;;;4.13;1.80;;;;;;;10.36;87.14;98243.50;5015308;28;20514;-59
2022/05/17 05:45:05;;;;;;;3.15;1.92;;;;;;;10.39;87.19;98247.69;4999022;28;20039;-59
2022/05/17 05:47:30;;;;;;;2.88;1.58;;;;;;;10.50;87.02;98254.09;5002960;28;20023;-60
2022/05/17 05:49:56;;;;;;;2.63;1.67;;;;;;;10.44;86.76;98256.13;4995607;28;20023;-60
2022/05/17 05:52:22;;;;;;;2.85;1.50;;;;;;;10.46;87.52;98249.09;4997137;28;20038;-60
2022/05/17 05:54:47;;;;;;;1.40;1.30;;;;;;;10.51;85.88;98255.75;5011110;28;20034;-60
2022/05/17 05:57:13;;;;;;;2.03;1.80;;;;;;;10.51;86.76;98263.53;4997178;28;20106;-60
2022/05/17 05:59:39;;;;;;;3.22;2.00;;;;;;;10.61;86.71;98265.72;4999469;28;20474;-60
2022/05/17 06:02:06;;;;;;;3.45;1.90;;;;;;;10.52;87.81;98260.03;4995462;28;20029;-59
2022/05/17 06:04:31;;;;;;;2.42;1.90;;;;;;;10.45;87.83;98263.81;4995715;28;20033;-60
2022/05/17 06:06:57;;;;;;;2.20;2.00;;;;;;;10.47;86.62;98261.97;4995673;28;20030;-60
2022/05/17 06:09:24;;;;;;;3.55;2.10;;;;;;;10.19;87.98;98220.94;5010186;28;20030;-59
2022/05/17 06:11:50;;;;;;;1.92;1.70;;;;;;;10.23;87.14;98248.34;5009919;28;20029;-60
2022/05/17 06:14:16;;;;;;;2.15;1.92;;;;;;;10.48;87.82;98263.66;5015023;28;20521;-60
2022/05/17 06:16:41;;;;;;;2.70;2.08;;;;;;;10.44;87.81;98266.47;5009765;28;20022;-60
2022/05/17 06:19:07;;;;;;;2.38;2.17;;;;;;;10.56;87.59;98275.44;4995549;28;20031;-61
2022/05/17 06:21:33;;;;;;;3.22;2.00;;;;;;;10.53;87.12;98274.66;4994286;28;20018;-60
2022/05/17 06:23:59;;;;;;;2.95;2.10;;;;;;;10.46;87.57;98273.25;4996216;28;20150;-59
2022/05/17 06:26:25;;;;;;;2.70;2.50;;;;;;;10.45;86.87;98273.34;4994149;28;20030;-59
2022/05/17 06:28:50;;;;;;;4.05;2.47;;;;;;;10.59;87.60;98275.28;4994376;28;20054;-60
2022/05/17 06:31:16;;;;;;;3.35;2.63;;;;;;;10.46;87.39;98275.84;4997235;28;20124;-59
2022/05/17 06:33:41;;;;;;;4.72;3.22;;;;;;;10.49;87.02;98273.13;5034511;28;20025;-59
2022/05/17 06:36:07;;;;;;;4.18;3.63;;;;;;;10.45;87.60;98268.97;5015776;28;20038;-60
2022/05/17 06:38:34;;;;;;;3.03;2.83;;;;;;;10.48;87.31;98278.38;5027056;28;20364;-60
2022/05/17 06:41:00;;;;;;;3.53;2.88;;;;;;;10.54;86.67;98275.50;5034888;28;20033;-60
2022/05/17 06:43:26;;;;;;;3.90;3.40;;;;;;;10.48;88.17;98286.97;5030704;28;20057;-61
2022/05/17 06:45:52;;;;;;;3.63;3.33;;;;;;;10.48;88.38;98279.19;5009759;28;20401;-61
2022/05/17 06:48:19;;;;;;;4.32;3.45;;;;;;;10.40;87.26;98254.56;5013685;28;20026;-60
2022/05/17 06:50:45;;;;;;;4.32;3.88;;;;;;;10.36;87.04;98279.72;5013277;28;20033;-61
2022/05/17 06:53:10;;;;;;;4.10;3.72;;;;;;;10.55;87.44;98281.53;5013374;28;20036;-60
2022/05/17 06:55:37;;;;;;;4.40;4.00;;;;;;;10.44;89.02;98287.19;5011201;28;20038;-59
2022/05/17 06:58:03;;;;;;;4.65;4.25;;;;;;;10.43;87.35;98285.47;5013476;28;20080;-60
2022/05/17 07:00:29;;;;;;;4.80;4.13;;;;;;;10.50;87.36;98284.31;5011093;28;20026;-61
2022/05/17 07:02:55;;;;;;;4.97;4.50;;;;;;;10.45;88.62;98276.75;5011787;28;20064;-60
2022/05/17 07:05:20;;;;;;;4.40;4.00;;;;;;;10.44;87.77;98293.19;5011994;28;20527;-60
2022/05/17 07:07:46;;;;;;;5.78;5.18;;;;;;;10.47;87.69;98293.03;5012171;28;20026;-61
2022/05/17 07:13:09;;;;;;;5.45;4.82;;;;;;;10.56;87.32;98296.13;5013139;28;20479;-60
2022/05/17 07:15:41;;;;;;;7.13;5.05;;;;;;;10.62;86.08;98311.44;5012474;28;20022;-60
2022/05/17 07:18:07;;;;;;;;;;;;;;;10.59;86.53;98302.03;5013541;28;20029;-59
2022/05/17 07:20:34;;;;;;;5.55;4.50;;;;;;;10.59;85.90;98308.94;5011713;28;20004;-59
2022/05/17 07:23:00;;;;;;;4.78;4.22;;;;;;;10.59;85.60;98314.13;5010611;28;20025;-59
2022/05/17 07:25:26;;;;;;;5.05;4.38;;;;;;;10.66;85.64;98300.84;5011761;28;20526;-60
2022/05/17 07:27:51;;;;;;;4.80;4.38;;;;;;;10.70;85.83;98301.53;5009025;28;20065;-59
2022/05/17 07:30:17;;;;;;;7.35;4.75;;;;;;;10.73;86.07;98304.03;5011707;28;20076;-59
2022/05/17 07:32:42;;;;;;;7.20;5.07;;;;;;;10.75;86.15;98306.53;5011342;28;20481;-59
2022/05/17 07:35:08;;;;;;;6.18;4.95;;;;;;;10.84;85.20;98304.34;5011634;28;20049;-59
2022/05/17 07:37:35;;;;;;;6.25;5.25;;;;;;;10.93;85.68;98316.06;5009004;28;20452;-60
2022/05/17 07:40:02;;;;;;;5.40;5.00;;;;;;;10.67;85.93;98312.03;5012323;28;20026;-59
2022/05/17 07:42:31;;;;;;;5.85;5.13;;;;;;;10.81;85.52;98304.50;5013151;28;20029;-59
2022/05/17 07:44:57;;;;;;;6.40;4.90;;;;;;;10.81;84.81;98306.25;5013629;28;20021;-60
2022/05/17 07:47:23;;;;;;;6.35;5.50;;;;;;;11.05;84.45;98299.94;5013575;28;20041;-59
2022/05/17 07:49:48;;;;;;;6.35;5.00;;;;;;;11.07;84.58;98288.69;5008593;28;20388;-59
2022/05/17 07:52:14;;;;;;;5.78;5.28;;;;;;;11.02;85.60;98300.09;5009696;28;20095;-60
2022/05/17 07:54:41;;;;;;;5.90;5.00;;;;;;;11.03;85.38;98306.97;5019166;28;20033;-60
2022/05/17 07:57:07;;;;;;;5.95;5.32;;;;;;;11.04;85.08;98307.81;5013376;28;20109;-60
2022/05/17 07:59:32;;;;;;;6.30;5.70;;;;;;;10.74;85.69;98272.03;5002067;28;20050;-60
2022/05/17 08:01:58;;;;;;;7.30;5.65;;;;;;;10.81;85.72;98309.69;5007351;28;20471;-59
2022/05/17 08:04:23;;;;;;;8.10;6.63;;;;;;;11.04;86.12;98307.81;5022959;28;20045;-59
2022/05/17 08:06:50;;;;;;;6.90;6.20;;;;;;;11.08;86.25;98314.53;5011683;28;20352;-60
2022/05/17 08:09:16;;;;;;;7.03;6.25;;;;;;;11.10;86.50;98315.31;5009845;28;20132;-59
2022/05/17 08:11:41;;;;;;;5.55;5.05;;;;;;;11.16;84.67;98309.84;5011902;28;20471;-58
2022/05/17 08:14:08;;;;;;;6.10;5.60;;;;;;;11.16;85.10;98307.25;5012434;28;20033;-60
2022/05/17 08:16:34;;;;;;;6.07;5.20;;;;;;;11.16;86.07;98317.59;5010178;28;20027;-60
2022/05/17 08:18:59;;;;;;;6.65;5.80;;;;;;;11.08;86.44;98283.44;4993912;28;20038;-60
2022/05/17 08:21:25;;;;;;;6.15;5.57;;;;;;;11.33;85.54;98316.84;5009225;28;20034;-60
2022/05/17 08:23:51;;;;;;;6.05;5.53;;;;;;;11.32;85.41;98312.56;5012205;28;20407;-60
2022/05/17 08:29:01;;;;;;;5.65;5.15;;;;;;;11.40;84.75;98325.13;5008494;28;20032;-60
2022/05/17 08:31:26;;;;;;;5.63;5.13;;;;;;;11.32;84.99;98322.09;5011800;28;20017;-60
2022/05/17 08:33:52;;;;;;;7.22;5.13;;;;;;;11.09;85.92;98325.72;5012964;28;20057;-59
2022/05/17 08:36:18;;;;;;;7.93;5.20;;;;;;;11.14;85.48;98324.59;5012568;28;20041;-60
2022/05/17 08:38:46;;;;;;;5.20;4.70;;;;;;;11.15;84.94;98315.09;5003465;28;20026;-61
2022/05/17 08:41:29;;;;;;;8.45;6.28;;;;;;;11.30;83.87;98323.91;5011105;28;20058;-60
2022/05/17 08:44:00;;;;;;;5.88;5.30;;;;;;;11.36;84.25;98332.22;5010936;28;20062;-60
2022/05/17 08:46:56;;;;;;;6.88;5.22;;;;;;;11.44;83.57;98324.09;5012286;28;20056;-60
2022/05/17 08:49:27;;;;;;;5.90;5.40;;;;;;;11.58;83.32;98336.41;5008285;28;20032;-60
2022/05/17 08:52:00;;;;;;;7.90;6.13;;;;;;;11.51;85.62;98322.88;5011755;28;20104;-61
2022/05/17 08:54:35;;;;;;;6.43;5.82;;;;;;;11.23;85.13;98285.31;5009585;28;20030;-59
2022/05/17 08:57:14;;;;;;;6.47;5.88;;;;;;;11.39;83.70;98319.13;5010961;28;20044;-61
2022/05/17 08:59:47;;;;;;;8.35;6.40;;;;;;;11.56;85.06;98331.28;5010712;28;20030;-61
2022/05/17 09:02:18;;;;;;;7.00;6.40;;;;;;;11.67;83.66;98333.38;5008170;28;20018;-60
2022/05/17 09:05:05;;;;;;;7.82;7.13;;;;;;;11.71;84.45;98334.06;5009189;28;20073;-61
2022/05/17 09:07:38;;;;;;;7.68;6.97;;;;;;;11.42;82.77;98281.84;5009830;28;20392;-61
2022/05/17 09:10:32;;;;;;;9.40;7.47;;;;;;;11.84;83.19;98326.53;5011670;28;20022;-60
2022/05/17 09:13:17;;;;;;;9.63;7.20;;;;;;;11.95;82.63;98341.63;5011330;28;20546;-63
2022/05/17 09:15:44;;;;;;;8.43;7.60;;;;;;;11.86;84.40;98337.69;5012032;28;20033;-60
2022/05/17 09:18:14;;;;;;;8.65;7.85;;;;;;;11.94;83.75;98345.13;5015490;28;20022;-60
2022/05/17 09:20:41;;;;;;;7.97;7.20;;;;;;;11.54;82.47;98342.66;5014805;28;20057;-60
2022/05/17 09:23:07;;;;;;;8.70;7.80;;;;;;;11.57;81.97;98334.72;5012021;28;20031;-60
2022/05/17 09:25:58;;;;;;;9.80;7.93;;;;;;;11.66;81.66;98343.84;5013892;28;20025;-60
2022/05/17 09:28:27;;;;;;;8.70;7.80;;;;;;;11.36;81.70;98280.41;5012450;28;20026;-58
2022/05/17 09:31:15;;;;;;;9.00;8.15;;;;;;;11.54;81.73;98309.78;5015611;28;20044;-60
2022/05/17 09:33:41;;;;;;;9.13;8.23;;;;;;;11.65;81.74;98321.41;5008777;28;20030;-58
2022/05/17 09:36:13;;;;;;;9.27;8.35;;;;;;;11.68;82.16;98354.97;5015018;28;20038;-59
2022/05/17 09:38:39;;;;;;;10.25;8.35;;;;;;;11.63;81.61;98343.97;5014592;28;20180;-60
2022/05/17 09:41:14;;;;;;;9.95;9.05;;;;;;;11.27;81.47;98279.97;5011592;28;20034;-61
2022/05/17 09:43:39;;;;;;;9.27;8.35;;;;;;;11.73;81.33;98348.66;5014875;28;20034;-60
2022/05/17 09:46:17;;;;;;;10.25;8.40;;;;;;;11.68;81.65;98360.97;5012756;28;20028;-60
2022/05/17 09:54:45;;;;;;;8.93;8.02;;;;;;;11.40;81.72;98307.84;5010652;28;20051;-59
2022/05/17 09:57:11;;;;;;;10.15;8.73;;;;;;;11.73;81.08;98355.59;5011777;28;20018;-60
2022/05/17 09:59:37;;;;;;;9.43;8.52;;;;;;;11.81;81.07;98361.22;5010308;28;20025;-60
2022/05/17 10:02:03;;;;;;;8.77;7.80;;;;;;;11.79;81.61;98355.28;5011868;28;20018;-59
2022/05/17 10:04:29;;;;;;;10.40;8.77;;;;;;;11.60;81.96;98351.88;5027935;28;20087;-61
2022/05/17 10:06:56;;;;;;;9.90;9.00;;;;;;;11.47;82.36;98351.63;5014253;28;20033;-61
2022/05/17 10:09:32;;;;;;;9.27;8.23;;;;;;;11.63;81.65;98367.28;5012672;28;20036;-60
2022/05/17 10:12:05;;;;;;;9.30;8.40;;;;;;;11.46;81.46;98311.06;5015561;28;20084;-60
2022/05/17 10:14:46;;;;;;;11.25;8.73;;;;;;;11.32;82.73;98303.94;5012243;28;20502;-61
2022/05/17 10:17:49;;;;;;;8.15;7.38;;;;;;;11.71;81.34;98360.84;5007098;28;20034;-60
2022/05/17 10:20:30;;;;;;;11.10;7.95;;;;;;;11.74;80.85;98365.03;5005507;28;20408;-61
2022/05/17 10:23:20;;;;;;;8.73;7.83;;;;;;;11.65;81.47;98366.31;5012870;28;20052;-62
2022/05/17 10:25:53;;;;;;;7.80;7.10;;;;;;;11.39;81.01;98310.53;5016801;28;20032;-60
2022/05/17 10:28:25;;;;;;;8.70;7.18;;;;;;;11.67;80.62;98364.50;5010550;28;20086;-60
2022/05/17 10:31:23;;;;;;;8.25;7.47;;;;;;;11.64;81.90;98371.56;5014249;28;20029;-60
2022/05/17 10:33:49;;;;;;;8.23;7.43;;;;;;;11.53;82.08;98354.78;5013415;28;20519;-62
2022/05/17 10:36:26;;;;;;;7.63;6.93;;;;;;;11.36;82.33;98370.28;5013990;28;20148;-62
2022/05/17 10:39:24;;;;;;;9.30;7.45;;;;;;;11.37;82.62;98362.44;5014202;28;20030;-61
2022/05/17 10:41:51;;;;;;;7.93;7.22;;;;;;;11.51;81.82;98364.38;5007219;28;20053;-60
2022/05/17 10:44:19;;;;;;;8.07;7.28;;;;;;;11.60;82.70;98365.72;5011736;28;20025;-60
2022/05/17 10:46:54;;;;;;;9.40;6.95;;;;;;;11.66;81.58;98365.41;5010565;28;20041;-61
2022/05/17 10:49:28;;;;;;;8.13;6.85;;;;;;;11.67;81.75;98368.84;5014554;28;20026;-61
2022/05/17 10:52:13;;;;;;;7.70;7.00;;;;;;;11.65;81.72;98368.91;5014273;28;20077;-60
2022/05/17 10:54:50;;;;;;;7.78;7.07;;;;;;;11.51;81.76;98374.72;5011959;28;20069;-60
2022/05/17 10:57:41;;;;;;;8.50;6.90;;;;;;;11.15;81.58;98315.09;5012147;28;20433;-60
2022/05/17 11:00:09;;;;;;;8.13;7.32;;;;;;;11.55;82.07;98376.28;5012163;28;20053;-61
2022/05/17 11:03:13;;;;;;;11.73;7.18;;;;;;;11.34;82.71;98377.28;5012312;28;20076;-61
2022/05/17 11:06:10;;;;;;;7.97;6.93;;;;;;;11.32;83.02;98374.75;5008987;28;20084;-60
2022/05/17 11:09:13;;;;;;;7.30;6.60;;;;;;;11.37;82.42;98377.13;5016403;28;20280;-61
2022/05/17 11:12:04;;;;;;;7.90;7.10;;;;;;;11.37;82.39;98374.53;5011904;28;20041;-61
2022/05/17 11:14:56;;;;;;;7.20;6.50;;;;;;;11.08;83.22;98324.88;5011989;28;20041;-61
2022/05/17 11:17:28;;;;;;;;;;;;;;;11.49;83.96;98379.16;5012595;28;20068;-61
2022/05/17 11:20:09;;;;;;;7.50;6.90;;;;;;;11.48;82.86;98372.28;5013653;28;19923;-62
2022/05/17 11:22:56;;;;;;;7.07;6.37;;;;;;;11.60;81.96;98365.72;5012209;28;20495;-61
2022/05/17 11:25:44;;;;;;;8.65;6.22;;;;;;;11.62;82.67;98363.03;5011414;28;20424;-61
2022/05/17 11:28:40;;;;;;;7.68;6.35;;;;;;;11.64;81.43;98372.41;5012378;28;20108;-61
2022/05/17 11:31:17;;;;;;;8.93;5.90;;;;;;;11.64;80.96;98350.84;5011964;28;20026;-61
2022/05/17 11:33:43;;;;;;;6.97;6.10;;;;;;;11.56;81.20;98370.19;5013296;28;20113;-61
2022/05/17 11:36:12;;;;;;;7.63;6.40;;;;;;;11.56;80.09;98320.91;5013764;28;20100;-61
2022/05/17 11:38:37;;;;;;;7.05;6.25;;;;;;;12.01;81.74;98375.88;5009743;28;20360;-62
2022/05/17 11:41:21;;;;;;;6.32;5.72;;;;;;;12.13;80.54;98379.63;5013846;28;20033;-61
2022/05/17 11:44:11;;;;;;;6.10;5.50;;;;;;;12.00;79.72;98369.03;5009697;28;20050;-60
2022/05/17 11:46:52;;;;;;;6.35;5.10;;;;;;;11.86;79.87;98328.13;5014373;28;20060;-61
2022/05/17 11:49:17;;;;;;;7.10;5.80;;;;;;;12.21;79.94;98384.44;5013252;28;20534;-60
2022/05/17 11:51:57;;;;;;;7.50;5.80;;;;;;;12.20;79.59;98386.22;4994296;28;20117;-59
2022/05/17 11:54:40;;;;;;;7.15;6.43;;;;;;;12.16;79.48;98389.03;5014001;28;20026;-61
2022/05/17 11:57:09;;;;;;;7.45;5.00;;;;;;;12.07;78.76;98398.09;5010886;28;20387;-62
2022/05/17 11:59:54;;;;;;;5.32;4.82;;;;;;;12.26;77.80;98393.69;5003322;28;20022;-61